Time;durP1;ratioP1;P1;durP2;ratioP2;P2;SDS_P1;SDS_P2;PMS_P1;PMS_P2;Temp;Humidity;BMP_temperature;BMP_pressure;BME280_temperature;BME280_humidity;BME280_pressure;Samples;Min_cycle;Max_cycle;Signal;HPM_P1;HPM_P2
2022/10/01 00:00:28;;;;;;;1.55;1.00;;;;;;;15.07;100.00;97998.69;7389220;19;20594;-60
2022/10/01 00:02:54;;;;;;;0.55;0.28;;;;;;;15.17;100.00;97994.84;7390771;19;20010;-60
2022/10/01 00:05:20;;;;;;;0.20;0.20;;;;;;;15.33;100.00;97990.06;7394796;19;20043;-60
2022/10/01 00:07:46;;;;;;;1.58;0.50;;;;;;;15.31;100.00;97991.91;7390909;19;20006;-60
2022/10/01 00:10:14;;;;;;;3.80;0.47;;;;;;;15.38;100.00;97996.78;7389900;19;20006;-60
2022/10/01 00:12:45;;;;;;;0.52;0.52;;;;;;;15.36;100.00;98002.22;7389031;19;20030;-61
2022/10/01 00:15:15;;;;;;;2.92;1.58;;;;;;;15.51;100.00;98005.13;7391465;19;20494;-60
2022/10/01 00:17:42;;;;;;;0.80;0.60;;;;;;;15.52;100.00;98010.19;7388056;19;20031;-61
2022/10/01 00:20:10;;;;;;;0.52;0.50;;;;;;;15.43;100.00;98007.13;7390062;19;20014;-61
2022/10/01 00:22:36;;;;;;;0.30;0.30;;;;;;;15.34;100.00;98007.63;7389594;19;20040;-60
2022/10/01 00:25:04;;;;;;;1.70;0.45;;;;;;;15.28;100.00;98016.19;7391008;19;20014;-60
2022/10/01 00:27:30;;;;;;;0.73;0.20;;;;;;;15.28;100.00;98009.84;7390044;19;20014;-61
2022/10/01 00:29:56;;;;;;;0.70;0.43;;;;;;;15.07;100.00;98019.06;7390038;19;20006;-61
2022/10/01 00:32:23;;;;;;;0.70;0.40;;;;;;;15.26;100.00;98023.66;7389180;19;20074;-60
2022/10/01 00:34:49;;;;;;;5.63;0.55;;;;;;;15.25;100.00;98016.53;7393731;19;20035;-61
2022/10/01 00:37:16;;;;;;;0.25;0.25;;;;;;;15.20;100.00;98021.75;7387557;19;20034;-61
2022/10/01 00:39:46;;;;;;;0.50;0.15;;;;;;;15.29;100.00;98028.19;7389737;19;20062;-61
2022/10/01 00:42:18;;;;;;;0.10;0.10;;;;;;;15.39;100.00;98029.91;7387483;19;20554;-61
2022/10/01 00:44:44;;;;;;;0.65;0.43;;;;;;;15.48;100.00;98026.63;7390299;19;20376;-61
2022/10/01 00:47:31;;;;;;;0.15;0.10;;;;;;;15.55;100.00;98027.97;7387754;19;20018;-60
2022/10/01 00:50:06;;;;;;;0.95;0.20;;;;;;;15.62;100.00;98027.25;7387990;19;20355;-60
2022/10/01 00:52:38;;;;;;;0.20;0.20;;;;;;;15.50;100.00;98026.06;7388287;19;20017;-61
2022/10/01 00:55:27;;;;;;;0.10;0.10;;;;;;;15.73;100.00;98030.47;7389513;19;20018;-60
2022/10/01 00:57:54;;;;;;;0.30;0.20;;;;;;;15.68;100.00;98034.19;7389303;19;20014;-60
2022/10/01 01:00:20;;;;;;;0.20;0.20;;;;;;;15.60;100.00;98038.28;7390101;19;20025;-61
2022/10/01 01:02:46;;;;;;;3.95;0.68;;;;;;;15.34;100.00;98042.03;7389125;19;20015;-60
2022/10/01 01:05:13;;;;;;;0.17;0.13;;;;;;;15.25;100.00;98038.97;7393509;19;20034;-60
2022/10/01 01:07:45;;;;;;;0.20;0.20;;;;;;;14.86;100.00;98042.81;7389545;19;20010;-61
2022/10/01 01:10:15;;;;;;;0.73;0.17;;;;;;;14.68;100.00;98050.16;7389445;19;20048;-60
2022/10/01 01:13:06;;;;;;;0.32;0.22;;;;;;;14.73;100.00;98046.44;7386357;19;20011;-61
2022/10/01 01:15:42;;;;;;;0.17;0.17;;;;;;;15.37;100.00;98040.19;7387813;19;20523;-60
2022/10/01 01:18:24;;;;;;;0.20;0.10;;;;;;;15.49;100.00;98047.75;7384433;19;20013;-60
2022/10/01 01:21:03;;;;;;;0.10;0.10;;;;;;;15.54;100.00;98046.88;7385358;19;20477;-61
2022/10/01 01:23:43;;;;;;;0.20;0.20;;;;;;;15.55;100.00;98048.34;7388520;19;20083;-61
2022/10/01 01:26:31;;;;;;;0.10;0.10;;;;;;;15.60;100.00;98046.69;7389062;19;20087;-61
2022/10/01 01:29:03;;;;;;;0.10;0.10;;;;;;;15.86;100.00;98050.00;7384833;19;20015;-60
2022/10/01 01:31:36;;;;;;;0.98;0.98;;;;;;;15.85;100.00;98056.19;7385000;19;20006;-56
2022/10/01 01:34:07;;;;;;;0.15;0.13;;;;;;;15.93;100.00;98062.56;7390510;19;20456;-56
2022/10/01 01:36:36;;;;;;;0.40;0.40;;;;;;;15.67;100.00;98060.00;7391229;19;20014;-56
2022/10/01 01:39:07;;;;;;;0.82;0.82;;;;;;;15.51;100.00;98075.25;7386813;19;20019;-56
2022/10/01 01:41:39;;;;;;;0.20;0.10;;;;;;;15.61;100.00;98081.88;7384045;19;20010;-56
2022/10/01 01:44:11;;;;;;;0.10;0.10;;;;;;;15.73;100.00;98074.63;7386020;19;20013;-56
2022/10/01 01:46:41;;;;;;;0.17;0.17;;;;;;;15.77;100.00;98077.81;7391225;19;20026;-56
2022/10/01 01:49:08;;;;;;;0.10;0.10;;;;;;;15.86;100.00;98080.88;7385374;19;20391;-56
2022/10/01 01:52:07;;;;;;;0.20;0.15;;;;;;;15.91;100.00;98087.63;7390788;19;20011;-56
2022/10/01 01:54:35;;;;;;;1.00;0.52;;;;;;;15.90;100.00;98074.91;7393694;19;20095;-56
2022/10/01 01:57:03;;;;;;;0.10;0.10;;;;;;;15.88;100.00;98081.06;7393761;19;20070;-56
2022/10/01 01:59:32;;;;;;;2.47;0.90;;;;;;;15.98;100.00;98084.13;7392507;19;20067;-56
2022/10/01 02:01:59;;;;;;;0.82;0.43;;;;;;;15.88;100.00;98088.75;7394473;19;20010;-56
2022/10/01 02:04:33;;;;;;;1.35;0.63;;;;;;;15.85;100.00;98081.44;7394625;19;20018;-56
2022/10/01 02:07:08;;;;;;;0.30;0.20;;;;;;;15.93;100.00;98090.63;7393956;19;20355;-56
2022/10/01 02:09:40;;;;;;;0.20;0.15;;;;;;;16.02;100.00;98092.16;7392445;19;20014;-55
2022/10/01 02:12:16;;;;;;;0.10;0.10;;;;;;;16.08;100.00;98090.69;7392205;19;20014;-56
2022/10/01 02:14:46;;;;;;;0.38;0.38;;;;;;;16.19;100.00;98098.78;7394167;19;20078;-56
2022/10/01 02:17:18;;;;;;;0.68;0.68;;;;;;;16.18;100.00;98094.47;7393686;19;20014;-56
2022/10/01 02:20:08;;;;;;;0.10;0.10;;;;;;;16.04;100.00;98095.94;7394116;19;20070;-56
2022/10/01 02:22:51;;;;;;;13.95;1.48;;;;;;;15.83;100.00;98093.22;7394169;19;20018;-56
2022/10/01 02:25:25;;;;;;;0.10;0.10;;;;;;;15.98;100.00;98103.03;7390058;19;20014;-56
2022/10/01 02:27:59;;;;;;;0.10;0.10;;;;;;;16.17;100.00;98111.88;7392822;19;20022;-56
2022/10/01 02:30:28;;;;;;;0.10;0.10;;;;;;;16.25;100.00;98109.84;7393195;19;20002;-56
2022/10/01 02:32:58;;;;;;;0.10;0.10;;;;;;;16.19;100.00;98112.09;7393091;19;20512;-56
2022/10/01 02:35:27;;;;;;;0.30;0.20;;;;;;;16.06;100.00;98112.97;7398096;19;20032;-56
2022/10/01 02:37:58;;;;;;;0.10;0.10;;;;;;;15.78;100.00;98119.41;7393447;19;20018;-56
2022/10/01 02:40:27;;;;;;;0.10;0.10;;;;;;;15.85;100.00;98115.84;7392491;19;20066;-56
2022/10/01 02:43:04;;;;;;;1.58;0.63;;;;;;;15.84;100.00;98116.41;7396583;19;20062;-60
2022/10/01 02:45:34;;;;;;;7.03;0.47;;;;;;;15.78;100.00;98107.41;7397641;19;20463;-60
2022/10/01 02:48:06;;;;;;;0.10;0.10;;;;;;;15.65;100.00;98111.09;7395219;19;20010;-60
2022/10/01 02:50:45;;;;;;;0.10;0.10;;;;;;;15.29;100.00;98117.94;7396426;19;20011;-56
2022/10/01 02:53:33;;;;;;;1.65;0.55;;;;;;;15.29;100.00;98123.53;7396057;19;20015;-60
2022/10/01 02:56:02;;;;;;;0.20;0.20;;;;;;;15.68;100.00;98123.28;7400893;19;20019;-60
2022/10/01 02:58:29;;;;;;;0.20;0.20;;;;;;;15.76;100.00;98138.09;7397571;19;20067;-60
2022/10/01 03:00:55;;;;;;;6.70;0.80;;;;;;;15.76;100.00;98132.47;7392180;19;20034;-60
2022/10/01 03:03:22;;;;;;;2.50;0.20;;;;;;;15.76;100.00;98138.09;7392922;19;20019;-60
2022/10/01 03:05:48;;;;;;;0.20;0.20;;;;;;;15.72;100.00;98143.31;7394322;19;20471;-60
2022/10/01 03:08:14;;;;;;;0.10;0.10;;;;;;;15.73;100.00;98151.16;7391958;19;20014;-60
2022/10/01 03:10:40;;;;;;;0.25;0.25;;;;;;;15.59;100.00;98155.38;7391643;19;20014;-60
2022/10/01 03:13:06;;;;;;;0.10;0.10;;;;;;;15.41;100.00;98158.41;7390257;19;20366;-60
2022/10/01 03:15:33;;;;;;;10.43;1.17;;;;;;;15.35;100.00;98169.00;7394111;19;20082;-60
2022/10/01 03:17:59;;;;;;;0.75;0.20;;;;;;;15.17;100.00;98171.50;7390307;19;20050;-60
2022/10/01 03:20:25;;;;;;;0.65;0.57;;;;;;;15.18;100.00;98170.19;7391574;19;20011;-60
2022/10/01 03:22:52;;;;;;;0.52;0.32;;;;;;;15.13;100.00;98167.53;7391347;19;20062;-60
2022/10/01 03:25:18;;;;;;;0.75;0.50;;;;;;;15.18;100.00;98175.06;7393603;19;20027;-60
2022/10/01 03:27:45;;;;;;;0.22;0.22;;;;;;;15.20;100.00;98173.19;7389904;19;20009;-60
2022/10/01 03:30:12;;;;;;;0.10;0.10;;;;;;;15.10;100.00;98179.81;7391212;19;20019;-60
2022/10/01 03:32:38;;;;;;;0.10;0.10;;;;;;;15.04;100.00;98177.16;7390574;19;20484;-60
2022/10/01 03:35:04;;;;;;;0.10;0.10;;;;;;;14.96;100.00;98186.81;7394437;19;20014;-59
2022/10/01 03:37:31;;;;;;;1.08;0.20;;;;;;;14.89;100.00;98198.69;7391182;19;20014;-59
2022/10/01 03:39:57;;;;;;;0.10;0.10;;;;;;;14.88;100.00;98197.94;7391553;19;20014;-60
2022/10/01 03:42:23;;;;;;;0.30;0.20;;;;;;;14.65;100.00;98213.75;7390949;19;20086;-60
2022/10/01 03:44:49;;;;;;;2.15;1.10;;;;;;;14.82;100.00;98216.94;7391358;19;20351;-60
2022/10/01 03:47:15;;;;;;;0.10;0.10;;;;;;;14.84;100.00;98213.56;7390228;19;20011;-60
2022/10/01 03:49:41;;;;;;;0.30;0.30;;;;;;;14.73;100.00;98214.59;7390675;19;20010;-60
2022/10/01 03:52:07;;;;;;;0.10;0.10;;;;;;;14.72;100.00;98218.69;7390231;19;20010;-60
2022/10/01 03:54:33;;;;;;;0.15;0.15;;;;;;;14.84;100.00;98231.16;7392071;19;20754;-60
2022/10/01 03:56:59;;;;;;;0.10;0.10;;;;;;;15.06;100.00;98225.03;7390696;19;20025;-60
2022/10/01 03:59:26;;;;;;;0.10;0.10;;;;;;;15.00;100.00;98224.41;7390165;19;20015;-60
2022/10/01 04:01:53;;;;;;;1.00;0.28;;;;;;;14.90;100.00;98223.34;7391497;19;20038;-60
2022/10/01 04:04:19;;;;;;;6.70;0.40;;;;;;;14.72;100.00;98232.72;7392382;19;20370;-60
2022/10/01 04:06:45;;;;;;;0.10;0.10;;;;;;;14.69;100.00;98236.59;7390375;19;20017;-60
2022/10/01 04:09:11;;;;;;;0.20;0.20;;;;;;;14.61;100.00;98235.75;7390335;19;20103;-60
2022/10/01 04:11:38;;;;;;;3.15;0.60;;;;;;;14.24;100.00;98242.34;7389786;19;20519;-60
2022/10/01 04:14:04;;;;;;;0.43;0.43;;;;;;;14.41;100.00;98244.81;7388253;19;20061;-59
2022/10/01 04:16:33;;;;;;;0.30;0.30;;;;;;;14.34;100.00;98248.28;7395026;19;20014;-60
2022/10/01 04:19:00;;;;;;;0.30;0.30;;;;;;;14.39;100.00;98253.03;7388610;19;20006;-60
2022/10/01 04:21:26;;;;;;;0.40;0.20;;;;;;;14.50;100.00;98257.63;7389947;19;20014;-60
2022/10/01 04:23:52;;;;;;;0.38;0.28;;;;;;;14.26;100.00;98258.59;7390551;19;20470;-60
2022/10/01 04:26:18;;;;;;;0.40;0.40;;;;;;;14.22;100.00;98264.53;7394100;19;20352;-60
2022/10/01 04:28:45;;;;;;;0.55;0.35;;;;;;;14.14;100.00;98266.47;7389868;19;20010;-60
2022/10/01 04:31:25;;;;;;;0.10;0.10;;;;;;;14.34;100.00;98276.28;7389781;19;20043;-60
2022/10/01 04:33:52;;;;;;;0.30;0.30;;;;;;;14.08;100.00;98271.41;7392257;19;20560;-59
2022/10/01 04:36:19;;;;;;;0.20;0.20;;;;;;;13.81;100.00;98283.13;7392885;19;20021;-60
2022/10/01 04:38:45;;;;;;;0.10;0.10;;;;;;;13.86;100.00;98282.28;7389970;19;20011;-60
2022/10/01 04:41:13;;;;;;;0.52;0.52;;;;;;;13.90;100.00;98282.72;7389621;19;20010;-60
2022/10/01 04:43:39;;;;;;;0.30;0.30;;;;;;;13.93;100.00;98290.78;7390023;19;20014;-60
2022/10/01 04:46:05;;;;;;;0.20;0.20;;;;;;;13.96;100.00;98288.97;7393139;19;20011;-60
2022/10/01 04:48:32;;;;;;;0.20;0.20;;;;;;;13.80;100.00;98290.00;7388968;19;20495;-60
2022/10/01 04:50:58;;;;;;;0.10;0.10;;;;;;;14.01;100.00;98293.72;7387863;19;20452;-60
2022/10/01 04:53:24;;;;;;;0.10;0.10;;;;;;;13.94;100.00;98300.69;7387935;19;20032;-60
2022/10/01 04:55:50;;;;;;;0.55;0.55;;;;;;;13.88;100.00;98300.03;7391801;19;20014;-60
2022/10/01 04:58:17;;;;;;;0.20;0.20;;;;;;;14.12;100.00;98313.09;7389332;19;20031;-60
2022/10/01 05:00:43;;;;;;;0.10;0.10;;;;;;;14.14;100.00;98311.25;7389567;19;20404;-60
2022/10/01 05:03:09;;;;;;;0.20;0.20;;;;;;;14.20;100.00;98311.91;7389260;19;20024;-60
2022/10/01 05:05:36;;;;;;;0.20;0.20;;;;;;;14.11;100.00;98311.56;7394278;19;20015;-60
2022/10/01 05:08:02;;;;;;;0.10;0.10;;;;;;;13.99;100.00;98310.28;7388872;19;20023;-60
2022/10/01 05:10:28;;;;;;;0.20;0.20;;;;;;;14.08;100.00;98318.25;7389175;19;20011;-61
2022/10/01 05:12:56;;;;;;;0.20;0.20;;;;;;;13.95;100.00;98326.63;7387201;19;20011;-60
2022/10/01 05:15:22;;;;;;;0.15;0.15;;;;;;;14.05;100.00;98330.53;7387767;19;20011;-61
2022/10/01 05:17:49;;;;;;;0.20;0.20;;;;;;;14.06;100.00;98329.22;7388606;19;20038;-60
2022/10/01 05:20:18;;;;;;;1.75;0.57;;;;;;;13.84;100.00;98326.84;7386326;19;20011;-60
2022/10/01 05:22:46;;;;;;;0.20;0.20;;;;;;;13.66;100.00;98334.72;7388263;19;20019;-60
2022/10/01 05:25:12;;;;;;;0.28;0.28;;;;;;;13.66;100.00;98334.72;7395880;19;20024;-60
2022/10/01 05:27:39;;;;;;;0.40;0.40;;;;;;;13.60;100.00;98341.69;7394496;19;20082;-61
2022/10/01 05:30:10;;;;;;;0.20;0.20;;;;;;;13.58;100.00;98339.44;7396825;19;20018;-60
2022/10/01 05:32:37;;;;;;;0.38;0.38;;;;;;;13.50;100.00;98341.34;7394647;19;20014;-60
2022/10/01 05:35:05;;;;;;;0.20;0.20;;;;;;;13.28;100.00;98350.06;7398530;19;20011;-60
2022/10/01 05:37:32;;;;;;;0.47;0.20;;;;;;;13.25;100.00;98355.97;7394506;19;20019;-60
2022/10/01 05:39:58;;;;;;;0.10;0.10;;;;;;;13.24;100.00;98354.47;7395245;19;20031;-60
2022/10/01 05:42:24;;;;;;;0.20;0.20;;;;;;;13.36;100.00;98356.56;7396314;19;20011;-60
2022/10/01 05:44:50;;;;;;;0.70;0.70;;;;;;;13.27;100.00;98359.75;7396361;19;20110;-60
2022/10/01 05:47:17;;;;;;;0.50;0.50;;;;;;;13.23;100.00;98364.88;7395365;19;20026;-60
2022/10/01 05:49:43;;;;;;;0.47;0.47;;;;;;;13.25;100.00;98359.53;7394698;19;20011;-60
2022/10/01 05:52:11;;;;;;;0.10;0.10;;;;;;;13.29;100.00;98371.16;7394318;19;20010;-60
2022/10/01 05:54:37;;;;;;;0.55;0.55;;;;;;;13.19;100.00;98369.28;7396332;19;20294;-60
2022/10/01 05:57:05;;;;;;;0.17;0.17;;;;;;;13.17;100.00;98377.41;7394030;19;20034;-60
2022/10/01 05:59:31;;;;;;;0.30;0.30;;;;;;;13.25;100.00;98378.34;7395537;19;20014;-60
2022/10/01 06:01:57;;;;;;;0.20;0.20;;;;;;;13.14;100.00;98382.06;7394981;19;20014;-60
2022/10/01 06:04:23;;;;;;;0.10;0.10;;;;;;;13.10;100.00;98389.22;7396323;19;20104;-60
2022/10/01 06:06:49;;;;;;;0.20;0.20;;;;;;;13.24;100.00;98388.78;7394696;19;20014;-60
2022/10/01 06:09:15;;;;;;;0.40;0.40;;;;;;;13.13;100.00;98383.31;7393889;19;20006;-61
2022/10/01 06:11:42;;;;;;;0.25;0.25;;;;;;;13.07;100.00;98402.22;7393727;19;20337;-60
2022/10/01 06:14:08;;;;;;;0.40;0.40;;;;;;;13.03;100.00;98401.72;7394699;19;20015;-60
2022/10/01 06:16:34;;;;;;;0.85;0.68;;;;;;;13.02;100.00;98400.22;7398597;19;20021;-60
2022/10/01 06:19:00;;;;;;;0.10;0.10;;;;;;;12.91;100.00;98411.53;7393250;19;20340;-60
2022/10/01 06:21:26;;;;;;;6.32;1.00;;;;;;;12.98;100.00;98410.94;7394148;19;20006;-60
2022/10/01 06:23:53;;;;;;;0.30;0.30;;;;;;;12.88;100.00;98413.34;7395000;19;20014;-60
2022/10/01 06:26:19;;;;;;;0.30;0.30;;;;;;;12.80;100.00;98422.81;7398024;19;20019;-60
2022/10/01 06:28:49;;;;;;;0.65;0.52;;;;;;;12.72;100.00;98430.28;7393074;19;20027;-60
2022/10/01 06:31:16;;;;;;;0.30;0.30;;;;;;;12.66;100.00;98432.38;7394660;19;20073;-60
2022/10/01 06:33:42;;;;;;;0.13;0.13;;;;;;;12.61;100.00;98441.56;7391217;19;20011;-60
2022/10/01 06:36:09;;;;;;;0.28;0.25;;;;;;;12.59;100.00;98441.34;7395843;19;20038;-60
2022/10/01 06:38:35;;;;;;;0.30;0.30;;;;;;;12.53;100.00;98446.22;7393742;19;20353;-60
2022/10/01 06:41:03;;;;;;;0.32;0.32;;;;;;;12.58;100.00;98453.81;7393726;19;20006;-60
2022/10/01 06:43:30;;;;;;;0.17;0.17;;;;;;;12.27;100.00;98455.09;7396238;19;20019;-60
2022/10/01 06:46:01;;;;;;;0.20;0.20;;;;;;;12.44;100.00;98457.75;7393630;19;20367;-60
2022/10/01 06:48:29;;;;;;;0.17;0.17;;;;;;;12.57;100.00;98452.28;7396113;19;20038;-60
2022/10/01 06:50:57;;;;;;;0.20;0.20;;;;;;;12.65;100.00;98456.00;7392730;19;20034;-61
2022/10/01 06:53:23;;;;;;;0.60;0.60;;;;;;;12.70;100.00;98458.00;7391817;19;20017;-60
2022/10/01 06:55:50;;;;;;;8.20;1.55;;;;;;;12.70;100.00;98463.56;7396010;19;20032;-60
2022/10/01 06:58:20;;;;;;;0.73;0.73;;;;;;;12.50;100.00;98466.81;7395266;19;20467;-57
2022/10/01 07:00:48;;;;;;;2.50;1.45;;;;;;;12.71;100.00;98465.84;7396179;19;20014;-57
2022/10/01 07:03:20;;;;;;;3.10;1.02;;;;;;;12.91;100.00;98473.75;7393547;19;20024;-57
2022/10/01 07:05:47;;;;;;;2.28;1.42;;;;;;;12.96;100.00;98480.56;7393203;19;20467;-56
2022/10/01 07:08:14;;;;;;;1.20;0.80;;;;;;;13.00;100.00;98481.03;7392433;19;20492;-56
2022/10/01 07:10:41;;;;;;;0.88;0.88;;;;;;;13.20;100.00;98477.78;7392483;19;20039;-56
2022/10/01 07:13:19;;;;;;;6.80;1.55;;;;;;;13.28;100.00;98487.06;7390531;19;20532;-56
2022/10/01 07:15:45;;;;;;;7.63;1.55;;;;;;;13.26;100.00;98488.88;7393138;19;20037;-56
2022/10/01 07:18:11;;;;;;;0.50;0.38;;;;;;;13.29;100.00;98483.00;7392632;19;20018;-56
2022/10/01 07:20:39;;;;;;;0.68;0.68;;;;;;;13.26;100.00;98486.09;7396130;19;20482;-56
2022/10/01 07:23:09;;;;;;;0.40;0.30;;;;;;;13.33;100.00;98491.84;7393819;19;20025;-56
2022/10/01 07:25:37;;;;;;;1.02;0.75;;;;;;;13.35;100.00;98489.28;7398973;19;20471;-56
2022/10/01 07:28:05;;;;;;;0.50;0.50;;;;;;;13.39;100.00;98494.56;7394389;19;20095;-56
2022/10/01 07:30:32;;;;;;;0.65;0.65;;;;;;;13.47;100.00;98496.22;7394687;19;20011;-56
2022/10/01 07:32:58;;;;;;;0.68;0.68;;;;;;;13.51;100.00;98501.53;7393683;19;20486;-56
2022/10/01 07:35:25;;;;;;;0.35;0.35;;;;;;;13.49;100.00;98504.84;7396220;19;20347;-56
2022/10/01 07:37:52;;;;;;;0.32;0.32;;;;;;;13.73;100.00;98511.69;7391757;19;20368;-56
2022/10/01 07:40:18;;;;;;;0.50;0.35;;;;;;;13.88;100.00;98517.56;7390205;19;20011;-56
2022/10/01 07:42:55;;;;;;;0.10;0.10;;;;;;;13.97;100.00;98520.00;7391259;19;20013;-56
2022/10/01 07:45:22;;;;;;;0.28;0.28;;;;;;;14.16;100.00;98520.72;7393348;19;20467;-56
2022/10/01 07:47:57;;;;;;;0.20;0.20;;;;;;;14.49;100.00;98528.59;7389657;19;20510;-56
2022/10/01 07:50:24;;;;;;;0.13;0.13;;;;;;;14.63;100.00;98535.75;7391055;19;20037;-56
2022/10/01 07:52:55;;;;;;;7.00;1.20;;;;;;;14.65;100.00;98535.97;7389860;19;20086;-56
2022/10/01 07:55:25;;;;;;;0.88;0.88;;;;;;;14.74;100.00;98526.41;7393362;19;20343;-57
2022/10/01 07:57:53;;;;;;;0.40;0.40;;;;;;;14.88;100.00;98542.69;7390848;19;20014;-56
2022/10/01 08:00:21;;;;;;;0.57;0.47;;;;;;;15.14;100.00;98536.34;7390668;19;20561;-56
2022/10/01 08:02:50;;;;;;;1.95;1.17;;;;;;;15.10;100.00;98539.50;7390710;19;20015;-56
2022/10/01 08:05:18;;;;;;;0.80;0.22;;;;;;;15.20;100.00;98537.75;7394223;19;20015;-56
2022/10/01 08:07:45;;;;;;;4.15;0.35;;;;;;;15.39;100.00;98534.09;7390546;19;20063;-56
2022/10/01 08:10:12;;;;;;;0.22;0.20;;;;;;;15.55;100.00;98541.47;7393835;19;20017;-56
2022/10/01 08:12:41;;;;;;;0.45;0.38;;;;;;;15.74;100.00;98544.88;7393147;19;20014;-56
2022/10/01 08:15:12;;;;;;;0.68;0.25;;;;;;;15.89;100.00;98547.88;7392252;19;20014;-56
2022/10/01 08:17:39;;;;;;;0.47;0.20;;;;;;;16.00;100.00;98553.25;7390500;19;20018;-56
2022/10/01 08:20:07;;;;;;;0.20;0.20;;;;;;;16.05;100.00;98543.94;7391353;19;20011;-56
2022/10/01 08:22:33;;;;;;;1.35;0.57;;;;;;;16.16;100.00;98545.72;7391701;19;20365;-57
2022/10/01 08:24:59;;;;;;;5.13;0.98;;;;;;;16.26;100.00;98547.53;7393272;19;20329;-61
2022/10/01 08:27:26;;;;;;;1.65;0.88;;;;;;;16.33;100.00;98555.28;7391747;19;20010;-60
2022/10/01 08:29:52;;;;;;;0.85;0.77;;;;;;;16.39;100.00;98557.97;7393408;19;20070;-57
2022/10/01 08:32:19;;;;;;;2.97;0.43;;;;;;;16.46;100.00;98552.41;7392083;19;20018;-57
2022/10/01 08:34:46;;;;;;;2.17;1.00;;;;;;;16.55;100.00;98560.41;7395361;19;20011;-57
2022/10/01 08:37:13;;;;;;;0.10;0.10;;;;;;;16.58;100.00;98556.50;7392009;19;20006;-57
2022/10/01 08:39:39;;;;;;;0.20;0.20;;;;;;;16.69;100.00;98566.72;7393813;19;20014;-57
2022/10/01 08:42:06;;;;;;;0.50;0.50;;;;;;;16.74;100.00;98562.25;7389978;19;20045;-57
2022/10/01 08:44:42;;;;;;;0.10;0.10;;;;;;;16.74;100.00;98559.47;7390389;19;20015;-57
2022/10/01 08:47:30;;;;;;;1.65;0.80;;;;;;;16.77;100.00;98575.22;7389650;19;20030;-57
2022/10/01 08:50:05;;;;;;;0.17;0.10;;;;;;;16.81;100.00;98575.63;7388210;19;20032;-57
2022/10/01 08:52:40;;;;;;;0.20;0.20;;;;;;;16.83;100.00;98578.66;7388924;19;20475;-57
2022/10/01 08:55:14;;;;;;;0.20;0.20;;;;;;;16.94;100.00;98581.94;7390776;19;20505;-56
2022/10/01 08:57:48;;;;;;;1.27;0.40;;;;;;;17.11;100.00;98587.88;7390006;19;20010;-57
2022/10/01 09:00:17;;;;;;;1.98;1.20;;;;;;;17.19;100.00;98587.94;7399300;19;20038;-57
2022/10/01 09:02:45;;;;;;;1.10;1.00;;;;;;;17.26;100.00;98604.13;7398938;19;20114;-57
2022/10/01 09:05:23;;;;;;;0.10;0.00;;;;;;;17.25;100.00;98596.97;7400137;19;20047;-58
2022/10/01 09:07:49;;;;;;;0.20;0.20;;;;;;;17.46;100.00;98600.50;7395961;19;20015;-58
2022/10/01 09:10:24;;;;;;;0.80;0.30;;;;;;;17.42;100.00;98600.88;7396738;19;20011;-58
2022/10/01 09:13:06;;;;;;;0.43;0.43;;;;;;;17.49;100.00;98605.03;7395035;19;20010;-58
2022/10/01 09:15:46;;;;;;;0.95;0.90;;;;;;;17.65;100.00;98603.84;7397412;19;20010;-57
2022/10/01 09:18:15;;;;;;;2.95;0.73;;;;;;;17.77;100.00;98619.13;7393937;19;20017;-57
2022/10/01 09:20:50;;;;;;;5.32;0.65;;;;;;;17.71;100.00;98612.13;7396651;19;20017;-57
2022/10/01 09:23:25;;;;;;;0.10;0.10;;;;;;;17.82;100.00;98615.38;7399172;19;20006;-58
2022/10/01 09:25:52;;;;;;;2.55;0.73;;;;;;;17.85;100.00;98610.69;7398845;19;20393;-57
2022/10/01 09:28:22;;;;;;;7.25;1.27;;;;;;;17.95;100.00;98618.06;7395459;19;20014;-57
2022/10/01 09:31:05;;;;;;;0.15;0.13;;;;;;;18.14;100.00;98612.91;7396339;19;20023;-57
2022/10/01 09:33:47;;;;;;;0.25;0.05;;;;;;;18.12;100.00;98620.41;7394861;19;20023;-57
2022/10/01 09:36:46;;;;;;;0.52;0.20;;;;;;;18.26;100.00;98630.22;7399278;19;20017;-57
2022/10/01 09:39:29;;;;;;;0.40;0.20;;;;;;;18.42;100.00;98636.69;7396318;19;20044;-57
2022/10/01 09:41:55;;;;;;;4.18;1.10;;;;;;;18.30;100.00;98641.88;7396268;19;20030;-57
2022/10/01 09:44:26;;;;;;;0.10;0.10;;;;;;;18.23;100.00;98627.78;7395353;19;20006;-57
2022/10/01 09:46:54;;;;;;;2.03;0.98;;;;;;;18.19;100.00;98642.97;7395289;19;20046;-57
2022/10/01 09:49:44;;;;;;;0.40;0.40;;;;;;;18.55;100.00;98645.78;7394761;19;21067;-57
2022/10/01 09:52:22;;;;;;;6.53;0.20;;;;;;;18.75;100.00;98658.25;7392036;19;20046;-57
2022/10/01 09:54:59;;;;;;;6.93;0.50;;;;;;;18.57;100.00;98660.06;7396169;19;20555;-57
2022/10/01 09:57:32;;;;;;;3.92;0.90;;;;;;;19.28;100.00;98653.41;7394410;19;20052;-58
2022/10/01 10:00:01;;;;;;;0.10;0.10;;;;;;;19.67;100.00;98652.06;7394724;19;20010;-58
2022/10/01 10:02:39;;;;;;;0.32;0.20;;;;;;;19.74;100.00;98659.03;7394925;19;20463;-57
2022/10/01 10:05:11;;;;;;;2.72;0.75;;;;;;;19.73;100.00;98663.19;7398800;19;20031;-57
2022/10/01 10:07:41;;;;;;;0.98;0.50;;;;;;;19.85;100.00;98665.06;7395030;19;20336;-56
2022/10/01 10:10:28;;;;;;;6.43;0.40;;;;;;;19.89;100.00;98671.06;7391080;19;20410;-56
2022/10/01 10:13:23;;;;;;;0.20;0.20;;;;;;;19.78;100.00;98676.34;7392656;19;20018;-56
2022/10/01 10:15:56;;;;;;;2.22;0.73;;;;;;;19.58;100.00;98683.72;7397172;19;20345;-57
2022/10/01 10:18:37;;;;;;;0.20;0.20;;;;;;;19.59;100.00;98683.16;7394180;19;20013;-56
2022/10/01 10:21:10;;;;;;;0.10;0.10;;;;;;;19.67;100.00;98692.38;7394467;19;20554;-56
2022/10/01 10:23:47;;;;;;;2.25;0.60;;;;;;;19.51;100.00;98685.22;7394799;19;20037;-56
2022/10/01 10:26:21;;;;;;;1.10;0.30;;;;;;;19.64;100.00;98699.16;7394505;19;20018;-57
2022/10/01 10:28:47;;;;;;;0.50;0.38;;;;;;;19.41;100.00;98723.81;7389528;19;20102;-57
2022/10/01 10:31:15;;;;;;;0.57;0.55;;;;;;;19.13;100.00;98715.50;7392944;19;20559;-57
2022/10/01 10:33:59;;;;;;;0.20;0.20;;;;;;;18.64;100.00;98717.81;7391470;19;20106;-57
2022/10/01 10:36:28;;;;;;;0.90;0.47;;;;;;;19.02;100.00;98710.19;7396519;19;20336;-56
2022/10/01 10:38:57;;;;;;;0.45;0.20;;;;;;;19.25;100.00;98710.97;7392324;19;20007;-54
2022/10/01 10:41:25;;;;;;;1.65;0.20;;;;;;;19.54;100.00;98726.47;7392120;19;20471;-55
2022/10/01 10:43:57;;;;;;;2.00;0.50;;;;;;;19.55;100.00;98710.28;7393901;19;20019;-56
2022/10/01 10:46:31;;;;;;;2.03;0.55;;;;;;;19.65;100.00;98719.69;7395718;19;20458;-56
2022/10/01 10:49:06;;;;;;;0.35;0.20;;;;;;;19.73;100.00;98722.53;7393327;19;20011;-55
2022/10/01 10:51:53;;;;;;;0.10;0.10;;;;;;;19.90;100.00;98734.00;7393165;19;20016;-62
2022/10/01 10:54:21;;;;;;;0.45;0.22;;;;;;;20.30;100.00;98729.97;7393595;19;20043;-62
2022/10/01 10:56:56;;;;;;;0.22;0.10;;;;;;;20.58;100.00;98717.63;7393222;19;20053;-61
2022/10/01 10:59:23;;;;;;;1.33;0.38;;;;;;;20.80;100.00;98745.06;7392084;19;20019;-62
2022/10/01 11:01:51;;;;;;;0.05;0.05;;;;;;;20.84;100.00;98745.41;7392827;19;20103;-62
2022/10/01 11:04:40;;;;;;;0.88;0.10;;;;;;;20.44;100.00;98753.13;7393892;19;20074;-62
2022/10/01 11:07:08;;;;;;;1.10;0.20;;;;;;;20.33;100.00;98759.97;7392813;19;20006;-62
2022/10/01 11:10:01;;;;;;;0.10;0.10;;;;;;;20.17;100.00;98771.81;7393674;19;20070;-63
2022/10/01 11:12:35;;;;;;;0.10;0.10;;;;;;;20.56;100.00;98771.19;7390725;19;20048;-63
2022/10/01 11:15:25;;;;;;;1.67;0.55;;;;;;;20.61;100.00;98766.66;7392484;19;20021;-62
2022/10/01 11:18:09;;;;;;;4.28;0.32;;;;;;;20.71;100.00;98779.63;7390794;19;20066;-62
2022/10/01 11:20:50;;;;;;;0.63;0.30;;;;;;;20.71;100.00;98771.13;7390600;19;20038;-62
2022/10/01 11:23:47;;;;;;;0.10;0.10;;;;;;;20.58;100.00;98781.94;7391858;19;20019;-62
2022/10/01 11:26:32;;;;;;;2.08;0.30;;;;;;;20.82;100.00;98781.28;7395501;19;20034;-63
2022/10/01 11:29:15;;;;;;;0.43;0.13;;;;;;;21.03;100.00;98788.19;7391827;19;20015;-57
2022/10/01 11:31:56;;;;;;;0.55;0.17;;;;;;;21.14;100.00;98779.25;7389663;19;20459;-56
2022/10/01 11:34:47;;;;;;;0.68;0.10;;;;;;;21.35;100.00;98798.03;7395393;19;20014;-57
2022/10/01 11:37:35;;;;;;;3.17;0.35;;;;;;;21.43;100.00;98795.91;7392755;19;20107;-63
2022/10/01 11:40:24;;;;;;;2.05;0.22;;;;;;;21.54;100.00;98803.94;7393052;19;20022;-63